Terminal Aerodrome Forecast
Issued by NWS Cleveland, OH

Home | Current Version | Previous Version | Text Only | Print | Product List | Glossary Off
Versions: 1 2 3 4 5 6 7 8 9 10 11 12 13 14 15 16 17 18 19 20 21

000
FTUS41 KCLE 212322
TAFYNG
TAF
KYNG 212322Z 2200/2224 34004KT P6SM FEW200
     FM220700 00000KT 5SM BR SCT200
     FM221300 16004KT 4SM -SHRA BR VCTS OVC035CB
     FM221600 16006KT 5SM SHRA BR VCTS OVC030CB=

USA.gov is the U.S. government's official web portal to all federal, state and local government web resources and services.